sensor_id;sensor_type;location;lat;lon;timestamp;temperature;humidity
30308;DHT22;17114;52.314;8.910;2023-12-20T00:00:30;6.50;99.90
30308;DHT22;17114;52.314;8.910;2023-12-20T00:02:57;6.40;99.90
30308;DHT22;17114;52.314;8.910;2023-12-20T00:05:24;6.30;99.90
30308;DHT22;17114;52.314;8.910;2023-12-20T00:07:51;6.30;99.90
30308;DHT22;17114;52.314;8.910;2023-12-20T00:10:18;6.20;99.90
30308;DHT22;17114;52.314;8.910;2023-12-20T00:12:45;6.20;99.90
30308;DHT22;17114;52.314;8.910;2023-12-20T00:15:12;6.10;99.90
30308;DHT22;17114;52.314;8.910;2023-12-20T00:17:39;6.10;99.90
30308;DHT22;17114;52.314;8.910;2023-12-20T00:20:07;6.10;99.90
30308;DHT22;17114;52.314;8.910;2023-12-20T00:22:34;6.10;99.90
30308;DHT22;17114;52.314;8.910;2023-12-20T00:25:00;6.00;99.90
30308;DHT22;17114;52.314;8.910;2023-12-20T00:27:27;6.10;99.90
30308;DHT22;17114;52.314;8.910;2023-12-20T00:29:54;6.20;99.90
30308;DHT22;17114;52.314;8.910;2023-12-20T00:32:21;6.10;99.90
30308;DHT22;17114;52.314;8.910;2023-12-20T00:34:48;6.10;99.90
30308;DHT22;17114;52.314;8.910;2023-12-20T00:37:15;6.00;99.90
30308;DHT22;17114;52.314;8.910;2023-12-20T00:39:43;6.10;99.90
30308;DHT22;17114;52.314;8.910;2023-12-20T00:42:10;6.10;99.90
30308;DHT22;17114;52.314;8.910;2023-12-20T00:44:37;6.10;99.90
30308;DHT22;17114;52.314;8.910;2023-12-20T00:47:04;6.10;99.90
30308;DHT22;17114;52.314;8.910;2023-12-20T00:49:31;6.10;99.90
30308;DHT22;17114;52.314;8.910;2023-12-20T00:51:58;6.10;99.90
30308;DHT22;17114;52.314;8.910;2023-12-20T00:54:25;6.10;99.90
30308;DHT22;17114;52.314;8.910;2023-12-20T00:56:52;6.10;99.90
30308;DHT22;17114;52.314;8.910;2023-12-20T00:59:19;6.20;99.90
30308;DHT22;17114;52.314;8.910;2023-12-20T01:01:46;6.00;99.90
30308;DHT22;17114;52.314;8.910;2023-12-20T01:04:13;6.20;99.90
30308;DHT22;17114;52.314;8.910;2023-12-20T01:06:40;6.10;99.90
30308;DHT22;17114;52.314;8.910;2023-12-20T01:09:07;6.00;99.90
30308;DHT22;17114;52.314;8.910;2023-12-20T01:11:34;6.00;99.90
30308;DHT22;17114;52.314;8.910;2023-12-20T01:14:01;6.10;99.90
30308;DHT22;17114;52.314;8.910;2023-12-20T01:16:28;6.10;99.90
30308;DHT22;17114;52.314;8.910;2023-12-20T01:18:54;6.00;99.90
30308;DHT22;17114;52.314;8.910;2023-12-20T01:21:21;6.00;99.90
30308;DHT22;17114;52.314;8.910;2023-12-20T01:23:48;6.00;99.90
30308;DHT22;17114;52.314;8.910;2023-12-20T01:26:15;5.90;99.90
30308;DHT22;17114;52.314;8.910;2023-12-20T01:28:42;6.10;99.90
30308;DHT22;17114;52.314;8.910;2023-12-20T01:31:09;5.90;99.90
30308;DHT22;17114;52.314;8.910;2023-12-20T01:33:37;5.90;99.90
30308;DHT22;17114;52.314;8.910;2023-12-20T01:36:04;5.90;99.90
30308;DHT22;17114;52.314;8.910;2023-12-20T01:38:31;5.90;99.90
30308;DHT22;17114;52.314;8.910;2023-12-20T01:40:59;5.80;99.90
30308;DHT22;17114;52.314;8.910;2023-12-20T01:43:26;5.90;99.90
30308;DHT22;17114;52.314;8.910;2023-12-20T01:45:57;5.80;99.90
30308;DHT22;17114;52.314;8.910;2023-12-20T01:48:25;5.80;99.90
30308;DHT22;17114;52.314;8.910;2023-12-20T01:50:52;5.80;99.90
30308;DHT22;17114;52.314;8.910;2023-12-20T01:53:21;5.70;99.90
30308;DHT22;17114;52.314;8.910;2023-12-20T01:55:52;5.60;99.90
30308;DHT22;17114;52.314;8.910;2023-12-20T01:58:22;5.70;99.90
30308;DHT22;17114;52.314;8.910;2023-12-20T02:00:50;5.70;99.90
30308;DHT22;17114;52.314;8.910;2023-12-20T02:03:17;5.50;99.90
30308;DHT22;17114;52.314;8.910;2023-12-20T02:05:45;5.50;99.90
30308;DHT22;17114;52.314;8.910;2023-12-20T02:08:12;5.50;99.90
30308;DHT22;17114;52.314;8.910;2023-12-20T02:10:40;5.40;99.90
30308;DHT22;17114;52.314;8.910;2023-12-20T02:13:07;5.50;99.90
30308;DHT22;17114;52.314;8.910;2023-12-20T02:15:34;5.40;99.90
30308;DHT22;17114;52.314;8.910;2023-12-20T02:18:04;5.40;99.90
30308;DHT22;17114;52.314;8.910;2023-12-20T02:20:31;5.40;99.90
30308;DHT22;17114;52.314;8.910;2023-12-20T02:22:58;5.40;99.90
30308;DHT22;17114;52.314;8.910;2023-12-20T02:25:25;5.40;99.90
30308;DHT22;17114;52.314;8.910;2023-12-20T02:27:52;5.40;99.90
30308;DHT22;17114;52.314;8.910;2023-12-20T02:30:20;5.30;99.90
30308;DHT22;17114;52.314;8.910;2023-12-20T02:32:48;5.30;99.90
30308;DHT22;17114;52.314;8.910;2023-12-20T02:35:15;5.20;99.90
30308;DHT22;17114;52.314;8.910;2023-12-20T02:37:42;5.20;99.90
30308;DHT22;17114;52.314;8.910;2023-12-20T02:40:10;5.20;99.90
30308;DHT22;17114;52.314;8.910;2023-12-20T02:42:37;5.20;99.90
30308;DHT22;17114;52.314;8.910;2023-12-20T02:45:04;5.20;99.90
30308;DHT22;17114;52.314;8.910;2023-12-20T02:47:31;5.10;99.90
30308;DHT22;17114;52.314;8.910;2023-12-20T02:49:58;5.10;99.90
30308;DHT22;17114;52.314;8.910;2023-12-20T02:52:27;5.10;99.90
30308;DHT22;17114;52.314;8.910;2023-12-20T02:54:54;5.10;99.90
30308;DHT22;17114;52.314;8.910;2023-12-20T02:57:21;5.10;99.90
30308;DHT22;17114;52.314;8.910;2023-12-20T02:59:47;5.10;99.90
30308;DHT22;17114;52.314;8.910;2023-12-20T03:02:14;5.20;99.90
30308;DHT22;17114;52.314;8.910;2023-12-20T03:04:41;5.10;99.90
30308;DHT22;17114;52.314;8.910;2023-12-20T03:07:08;5.00;99.90
30308;DHT22;17114;52.314;8.910;2023-12-20T03:09:35;5.20;99.90
30308;DHT22;17114;52.314;8.910;2023-12-20T03:12:22;5.10;99.90
30308;DHT22;17114;52.314;8.910;2023-12-20T03:14:49;5.10;99.90
30308;DHT22;17114;52.314;8.910;2023-12-20T03:17:16;5.20;99.90
30308;DHT22;17114;52.314;8.910;2023-12-20T03:19:43;5.20;99.90
30308;DHT22;17114;52.314;8.910;2023-12-20T03:22:10;5.30;99.90
30308;DHT22;17114;52.314;8.910;2023-12-20T03:24:37;5.30;99.90
30308;DHT22;17114;52.314;8.910;2023-12-20T03:27:04;5.40;99.90
30308;DHT22;17114;52.314;8.910;2023-12-20T03:29:31;5.40;99.90
30308;DHT22;17114;52.314;8.910;2023-12-20T03:31:58;5.30;99.90
30308;DHT22;17114;52.314;8.910;2023-12-20T03:34:26;5.30;99.90
30308;DHT22;17114;52.314;8.910;2023-12-20T03:36:53;5.30;99.90
30308;DHT22;17114;52.314;8.910;2023-12-20T03:39:19;5.30;99.90
30308;DHT22;17114;52.314;8.910;2023-12-20T03:41:46;5.50;99.90
30308;DHT22;17114;52.314;8.910;2023-12-20T03:44:13;5.50;99.90
30308;DHT22;17114;52.314;8.910;2023-12-20T03:46:40;5.50;99.90
30308;DHT22;17114;52.314;8.910;2023-12-20T03:49:07;5.50;99.90
30308;DHT22;17114;52.314;8.910;2023-12-20T03:51:34;5.50;99.90
30308;DHT22;17114;52.314;8.910;2023-12-20T03:54:01;5.40;99.90
30308;DHT22;17114;52.314;8.910;2023-12-20T03:56:27;5.50;99.90
30308;DHT22;17114;52.314;8.910;2023-12-20T03:58:54;5.50;99.90
30308;DHT22;17114;52.314;8.910;2023-12-20T04:01:21;5.60;99.90
30308;DHT22;17114;52.314;8.910;2023-12-20T04:03:48;5.60;99.90
30308;DHT22;17114;52.314;8.910;2023-12-20T04:06:18;5.60;99.90
30308;DHT22;17114;52.314;8.910;2023-12-20T04:08:45;5.60;99.90
30308;DHT22;17114;52.314;8.910;2023-12-20T04:11:12;5.70;99.90
30308;DHT22;17114;52.314;8.910;2023-12-20T04:13:39;5.80;99.90
30308;DHT22;17114;52.314;8.910;2023-12-20T04:16:06;5.70;99.90
30308;DHT22;17114;52.314;8.910;2023-12-20T04:18:33;5.80;99.90
30308;DHT22;17114;52.314;8.910;2023-12-20T04:21:00;5.80;99.90
30308;DHT22;17114;52.314;8.910;2023-12-20T04:23:27;5.80;99.90
30308;DHT22;17114;52.314;8.910;2023-12-20T04:25:54;5.80;99.90
30308;DHT22;17114;52.314;8.910;2023-12-20T04:28:21;5.80;99.90
30308;DHT22;17114;52.314;8.910;2023-12-20T04:30:48;5.70;99.90
30308;DHT22;17114;52.314;8.910;2023-12-20T04:33:15;5.80;99.90
30308;DHT22;17114;52.314;8.910;2023-12-20T04:35:42;6.00;99.90
30308;DHT22;17114;52.314;8.910;2023-12-20T04:38:09;5.80;99.90
30308;DHT22;17114;52.314;8.910;2023-12-20T04:40:36;5.90;99.90
30308;DHT22;17114;52.314;8.910;2023-12-20T04:43:03;5.90;99.90
30308;DHT22;17114;52.314;8.910;2023-12-20T04:45:30;5.90;99.90
30308;DHT22;17114;52.314;8.910;2023-12-20T04:47:57;5.90;99.90
30308;DHT22;17114;52.314;8.910;2023-12-20T04:50:24;5.90;99.90
30308;DHT22;17114;52.314;8.910;2023-12-20T04:52:51;5.90;99.90
30308;DHT22;17114;52.314;8.910;2023-12-20T04:55:18;5.90;99.90
30308;DHT22;17114;52.314;8.910;2023-12-20T04:57:45;6.00;99.90
30308;DHT22;17114;52.314;8.910;2023-12-20T05:00:13;6.10;99.90
30308;DHT22;17114;52.314;8.910;2023-12-20T05:02:42;5.90;99.90
30308;DHT22;17114;52.314;8.910;2023-12-20T05:05:09;6.10;99.90
30308;DHT22;17114;52.314;8.910;2023-12-20T05:07:36;5.90;99.90
30308;DHT22;17114;52.314;8.910;2023-12-20T05:10:03;6.00;99.90
30308;DHT22;17114;52.314;8.910;2023-12-20T05:12:35;5.90;99.90
30308;DHT22;17114;52.314;8.910;2023-12-20T05:15:02;5.90;99.90
30308;DHT22;17114;52.314;8.910;2023-12-20T05:17:29;5.90;99.90
30308;DHT22;17114;52.314;8.910;2023-12-20T05:19:56;5.90;99.90
30308;DHT22;17114;52.314;8.910;2023-12-20T05:22:22;5.80;99.90
30308;DHT22;17114;52.314;8.910;2023-12-20T05:24:49;6.00;99.90
30308;DHT22;17114;52.314;8.910;2023-12-20T05:27:16;5.80;99.90
30308;DHT22;17114;52.314;8.910;2023-12-20T05:29:43;5.90;99.90
30308;DHT22;17114;52.314;8.910;2023-12-20T05:32:10;5.90;99.90
30308;DHT22;17114;52.314;8.910;2023-12-20T05:34:37;5.90;99.90
30308;DHT22;17114;52.314;8.910;2023-12-20T05:37:04;5.90;99.90
30308;DHT22;17114;52.314;8.910;2023-12-20T05:39:31;5.90;99.90
30308;DHT22;17114;52.314;8.910;2023-12-20T05:41:58;5.90;99.90
30308;DHT22;17114;52.314;8.910;2023-12-20T05:44:25;5.80;99.90
30308;DHT22;17114;52.314;8.910;2023-12-20T05:46:52;6.10;99.90
30308;DHT22;17114;52.314;8.910;2023-12-20T05:49:19;6.10;99.90
30308;DHT22;17114;52.314;8.910;2023-12-20T05:51:46;5.90;99.90
30308;DHT22;17114;52.314;8.910;2023-12-20T05:54:13;5.90;99.90
30308;DHT22;17114;52.314;8.910;2023-12-20T05:56:40;6.00;99.90
30308;DHT22;17114;52.314;8.910;2023-12-20T05:59:07;5.90;99.90
30308;DHT22;17114;52.314;8.910;2023-12-20T06:01:34;5.90;99.90
30308;DHT22;17114;52.314;8.910;2023-12-20T06:04:01;6.00;99.90
30308;DHT22;17114;52.314;8.910;2023-12-20T06:06:30;5.80;99.90
30308;DHT22;17114;52.314;8.910;2023-12-20T06:08:57;5.90;99.90
30308;DHT22;17114;52.314;8.910;2023-12-20T06:11:24;5.90;99.90
30308;DHT22;17114;52.314;8.910;2023-12-20T06:13:51;5.80;99.90
30308;DHT22;17114;52.314;8.910;2023-12-20T06:16:19;5.90;99.90
30308;DHT22;17114;52.314;8.910;2023-12-20T06:18:46;5.80;99.90
30308;DHT22;17114;52.314;8.910;2023-12-20T06:21:13;5.80;99.90
30308;DHT22;17114;52.314;8.910;2023-12-20T06:23:41;5.90;99.90
30308;DHT22;17114;52.314;8.910;2023-12-20T06:26:08;5.90;99.90
30308;DHT22;17114;52.314;8.910;2023-12-20T06:28:34;5.80;99.90
30308;DHT22;17114;52.314;8.910;2023-12-20T06:31:04;5.80;99.90
30308;DHT22;17114;52.314;8.910;2023-12-20T06:33:31;5.90;99.90
30308;DHT22;17114;52.314;8.910;2023-12-20T06:35:58;5.80;99.90
30308;DHT22;17114;52.314;8.910;2023-12-20T06:38:25;5.80;99.90
30308;DHT22;17114;52.314;8.910;2023-12-20T06:40:52;5.90;99.90
30308;DHT22;17114;52.314;8.910;2023-12-20T06:43:18;5.80;99.90
30308;DHT22;17114;52.314;8.910;2023-12-20T06:46:05;5.90;99.90
30308;DHT22;17114;52.314;8.910;2023-12-20T06:48:32;5.80;99.90
30308;DHT22;17114;52.314;8.910;2023-12-20T06:51:00;5.80;99.90
30308;DHT22;17114;52.314;8.910;2023-12-20T06:53:28;5.90;99.90
30308;DHT22;17114;52.314;8.910;2023-12-20T06:55:57;5.80;99.90
30308;DHT22;17114;52.314;8.910;2023-12-20T06:58:24;5.80;99.90
30308;DHT22;17114;52.314;8.910;2023-12-20T07:00:51;5.80;99.90
30308;DHT22;17114;52.314;8.910;2023-12-20T07:03:18;5.90;99.90
30308;DHT22;17114;52.314;8.910;2023-12-20T07:05:45;5.90;99.90
30308;DHT22;17114;52.314;8.910;2023-12-20T07:08:12;5.90;99.90
30308;DHT22;17114;52.314;8.910;2023-12-20T07:10:41;5.90;99.90
30308;DHT22;17114;52.314;8.910;2023-12-20T07:13:08;5.80;99.90
30308;DHT22;17114;52.314;8.910;2023-12-20T07:15:35;6.00;99.90
30308;DHT22;17114;52.314;8.910;2023-12-20T07:18:03;5.90;99.90
30308;DHT22;17114;52.314;8.910;2023-12-20T07:20:32;5.90;99.90
30308;DHT22;17114;52.314;8.910;2023-12-20T07:22:59;6.00;99.90
30308;DHT22;17114;52.314;8.910;2023-12-20T07:25:26;6.00;99.90
30308;DHT22;17114;52.314;8.910;2023-12-20T07:27:53;6.00;99.90
30308;DHT22;17114;52.314;8.910;2023-12-20T07:30:20;6.00;99.90
30308;DHT22;17114;52.314;8.910;2023-12-20T07:32:47;5.90;99.90
30308;DHT22;17114;52.314;8.910;2023-12-20T07:35:15;6.10;99.90
30308;DHT22;17114;52.314;8.910;2023-12-20T07:37:43;6.00;99.90
30308;DHT22;17114;52.314;8.910;2023-12-20T07:40:11;5.90;99.90
30308;DHT22;17114;52.314;8.910;2023-12-20T07:42:38;6.00;99.90
30308;DHT22;17114;52.314;8.910;2023-12-20T07:45:05;6.10;99.90
30308;DHT22;17114;52.314;8.910;2023-12-20T07:47:34;6.00;99.90
30308;DHT22;17114;52.314;8.910;2023-12-20T07:50:02;5.90;99.90
30308;DHT22;17114;52.314;8.910;2023-12-20T07:52:30;6.00;99.90
30308;DHT22;17114;52.314;8.910;2023-12-20T07:54:57;6.00;99.90
30308;DHT22;17114;52.314;8.910;2023-12-20T07:57:24;6.00;99.90
30308;DHT22;17114;52.314;8.910;2023-12-20T07:59:51;6.00;99.90
30308;DHT22;17114;52.314;8.910;2023-12-20T08:02:18;6.00;99.90
30308;DHT22;17114;52.314;8.910;2023-12-20T08:04:45;6.00;99.90
30308;DHT22;17114;52.314;8.910;2023-12-20T08:07:12;6.00;99.90
30308;DHT22;17114;52.314;8.910;2023-12-20T08:09:39;6.00;99.90
30308;DHT22;17114;52.314;8.910;2023-12-20T08:12:06;6.00;99.90
30308;DHT22;17114;52.314;8.910;2023-12-20T08:14:33;6.00;99.90
30308;DHT22;17114;52.314;8.910;2023-12-20T08:17:00;6.00;99.90
30308;DHT22;17114;52.314;8.910;2023-12-20T08:19:27;6.00;99.90
30308;DHT22;17114;52.314;8.910;2023-12-20T08:21:54;6.00;99.90
30308;DHT22;17114;52.314;8.910;2023-12-20T08:24:21;6.10;99.90
30308;DHT22;17114;52.314;8.910;2023-12-20T08:26:48;6.20;99.90
30308;DHT22;17114;52.314;8.910;2023-12-20T08:29:15;6.10;99.90
30308;DHT22;17114;52.314;8.910;2023-12-20T08:31:42;6.10;99.90
30308;DHT22;17114;52.314;8.910;2023-12-20T08:34:09;6.10;99.90
30308;DHT22;17114;52.314;8.910;2023-12-20T08:36:38;6.20;99.90
30308;DHT22;17114;52.314;8.910;2023-12-20T08:39:05;6.00;99.90
30308;DHT22;17114;52.314;8.910;2023-12-20T08:41:35;6.10;99.90
30308;DHT22;17114;52.314;8.910;2023-12-20T08:44:02;6.10;99.90
30308;DHT22;17114;52.314;8.910;2023-12-20T08:46:29;6.00;99.90
30308;DHT22;17114;52.314;8.910;2023-12-20T08:48:56;6.10;99.90
30308;DHT22;17114;52.314;8.910;2023-12-20T08:51:24;6.10;99.90
30308;DHT22;17114;52.314;8.910;2023-12-20T08:53:52;6.10;99.90
30308;DHT22;17114;52.314;8.910;2023-12-20T08:56:19;6.10;99.90
30308;DHT22;17114;52.314;8.910;2023-12-20T08:58:46;6.10;99.90
30308;DHT22;17114;52.314;8.910;2023-12-20T09:01:14;6.10;99.90
30308;DHT22;17114;52.314;8.910;2023-12-20T09:03:42;6.20;99.90
30308;DHT22;17114;52.314;8.910;2023-12-20T09:06:10;6.20;99.90
30308;DHT22;17114;52.314;8.910;2023-12-20T09:08:37;6.20;99.90
30308;DHT22;17114;52.314;8.910;2023-12-20T09:11:04;6.20;99.90
30308;DHT22;17114;52.314;8.910;2023-12-20T09:13:31;6.40;99.90
30308;DHT22;17114;52.314;8.910;2023-12-20T09:15:59;6.30;99.90
30308;DHT22;17114;52.314;8.910;2023-12-20T09:18:26;6.30;99.90
30308;DHT22;17114;52.314;8.910;2023-12-20T09:20:53;6.30;99.90
30308;DHT22;17114;52.314;8.910;2023-12-20T09:23:20;6.40;99.90
30308;DHT22;17114;52.314;8.910;2023-12-20T09:25:47;6.50;99.90
30308;DHT22;17114;52.314;8.910;2023-12-20T09:28:14;6.50;99.90
30308;DHT22;17114;52.314;8.910;2023-12-20T09:30:41;6.60;99.90
30308;DHT22;17114;52.314;8.910;2023-12-20T09:33:08;6.50;99.90
30308;DHT22;17114;52.314;8.910;2023-12-20T09:35:36;6.60;99.90
30308;DHT22;17114;52.314;8.910;2023-12-20T09:38:03;6.60;99.90
30308;DHT22;17114;52.314;8.910;2023-12-20T09:40:32;6.70;99.90
30308;DHT22;17114;52.314;8.910;2023-12-20T09:43:04;6.70;99.90
30308;DHT22;17114;52.314;8.910;2023-12-20T09:45:35;6.70;99.90
30308;DHT22;17114;52.314;8.910;2023-12-20T09:48:03;6.70;99.90
30308;DHT22;17114;52.314;8.910;2023-12-20T09:50:31;6.70;99.90
30308;DHT22;17114;52.314;8.910;2023-12-20T09:53:01;6.60;99.90
30308;DHT22;17114;52.314;8.910;2023-12-20T09:55:29;6.60;99.90
30308;DHT22;17114;52.314;8.910;2023-12-20T09:57:57;6.60;99.90
30308;DHT22;17114;52.314;8.910;2023-12-20T10:00:24;6.60;99.90
30308;DHT22;17114;52.314;8.910;2023-12-20T10:02:58;6.60;99.90
30308;DHT22;17114;52.314;8.910;2023-12-20T10:05:31;6.60;99.90
30308;DHT22;17114;52.314;8.910;2023-12-20T10:08:00;6.60;99.90
30308;DHT22;17114;52.314;8.910;2023-12-20T10:10:29;6.60;99.90
30308;DHT22;17114;52.314;8.910;2023-12-20T10:13:11;6.70;99.90
30308;DHT22;17114;52.314;8.910;2023-12-20T10:15:39;6.70;99.90
30308;DHT22;17114;52.314;8.910;2023-12-20T10:18:08;6.70;99.90
30308;DHT22;17114;52.314;8.910;2023-12-20T10:20:36;6.70;99.90
30308;DHT22;17114;52.314;8.910;2023-12-20T10:23:03;6.80;99.90
30308;DHT22;17114;52.314;8.910;2023-12-20T10:25:30;6.70;99.90
30308;DHT22;17114;52.314;8.910;2023-12-20T10:28:10;6.70;99.90
30308;DHT22;17114;52.314;8.910;2023-12-20T10:30:38;6.70;99.90
30308;DHT22;17114;52.314;8.910;2023-12-20T10:33:08;6.60;99.90
30308;DHT22;17114;52.314;8.910;2023-12-20T10:35:38;6.70;99.90
30308;DHT22;17114;52.314;8.910;2023-12-20T10:38:10;6.70;99.90
30308;DHT22;17114;52.314;8.910;2023-12-20T10:40:38;6.70;99.90
30308;DHT22;17114;52.314;8.910;2023-12-20T10:43:05;6.70;99.90
30308;DHT22;17114;52.314;8.910;2023-12-20T10:45:33;6.60;99.90
30308;DHT22;17114;52.314;8.910;2023-12-20T10:48:02;6.70;99.90
30308;DHT22;17114;52.314;8.910;2023-12-20T10:50:31;6.70;99.90
30308;DHT22;17114;52.314;8.910;2023-12-20T10:52:58;6.80;99.90
30308;DHT22;17114;52.314;8.910;2023-12-20T10:55:27;6.60;99.90
30308;DHT22;17114;52.314;8.910;2023-12-20T10:58:01;6.70;99.90
30308;DHT22;17114;52.314;8.910;2023-12-20T11:00:29;6.70;99.90
30308;DHT22;17114;52.314;8.910;2023-12-20T11:03:00;6.80;99.90
30308;DHT22;17114;52.314;8.910;2023-12-20T11:10:55;6.80;99.90
30308;DHT22;17114;52.314;8.910;2023-12-20T11:14:15;6.80;99.90
30308;DHT22;17114;52.314;8.910;2023-12-20T11:16:16;6.80;99.90
30308;DHT22;17114;52.314;8.910;2023-12-20T11:18:45;6.90;99.90
30308;DHT22;17114;52.314;8.910;2023-12-20T11:21:13;6.90;99.90
30308;DHT22;17114;52.314;8.910;2023-12-20T11:23:42;6.90;99.90
30308;DHT22;17114;52.314;8.910;2023-12-20T11:26:09;7.00;99.90
30308;DHT22;17114;52.314;8.910;2023-12-20T11:28:36;7.10;99.90
30308;DHT22;17114;52.314;8.910;2023-12-20T11:31:03;7.10;99.90
30308;DHT22;17114;52.314;8.910;2023-12-20T11:33:37;7.10;99.90
30308;DHT22;17114;52.314;8.910;2023-12-20T11:36:14;7.20;99.90
30308;DHT22;17114;52.314;8.910;2023-12-20T11:38:57;7.10;99.90
30308;DHT22;17114;52.314;8.910;2023-12-20T11:41:25;7.20;99.90
30308;DHT22;17114;52.314;8.910;2023-12-20T11:43:53;7.20;99.90
30308;DHT22;17114;52.314;8.910;2023-12-20T11:46:21;7.10;99.90
30308;DHT22;17114;52.314;8.910;2023-12-20T11:48:48;7.10;99.90
30308;DHT22;17114;52.314;8.910;2023-12-20T11:51:15;7.10;99.90
30308;DHT22;17114;52.314;8.910;2023-12-20T11:53:42;6.90;99.90
30308;DHT22;17114;52.314;8.910;2023-12-20T11:56:10;6.60;99.90
30308;DHT22;17114;52.314;8.910;2023-12-20T11:58:37;6.30;99.90
30308;DHT22;17114;52.314;8.910;2023-12-20T12:01:04;5.90;99.90
30308;DHT22;17114;52.314;8.910;2023-12-20T12:03:35;5.90;99.90
30308;DHT22;17114;52.314;8.910;2023-12-20T12:06:02;5.60;99.90
30308;DHT22;17114;52.314;8.910;2023-12-20T12:08:32;5.40;99.90
30308;DHT22;17114;52.314;8.910;2023-12-20T12:10:59;5.30;99.90
30308;DHT22;17114;52.314;8.910;2023-12-20T12:13:26;5.20;99.90
30308;DHT22;17114;52.314;8.910;2023-12-20T12:15:54;5.20;99.90
30308;DHT22;17114;52.314;8.910;2023-12-20T12:18:21;5.10;99.90
30308;DHT22;17114;52.314;8.910;2023-12-20T12:20:48;5.20;99.90
30308;DHT22;17114;52.314;8.910;2023-12-20T12:23:22;5.20;99.90
30308;DHT22;17114;52.314;8.910;2023-12-20T12:25:51;5.30;99.90
30308;DHT22;17114;52.314;8.910;2023-12-20T12:28:18;5.30;99.90
30308;DHT22;17114;52.314;8.910;2023-12-20T12:31:00;5.30;99.90
30308;DHT22;17114;52.314;8.910;2023-12-20T12:33:28;5.30;99.90
30308;DHT22;17114;52.314;8.910;2023-12-20T12:35:55;5.50;99.90
30308;DHT22;17114;52.314;8.910;2023-12-20T12:38:24;5.50;99.90
30308;DHT22;17114;52.314;8.910;2023-12-20T12:40:51;5.60;99.90
30308;DHT22;17114;52.314;8.910;2023-12-20T12:43:20;5.70;99.90
30308;DHT22;17114;52.314;8.910;2023-12-20T12:45:50;5.90;99.90
30308;DHT22;17114;52.314;8.910;2023-12-20T12:48:17;5.80;99.90
30308;DHT22;17114;52.314;8.910;2023-12-20T12:50:46;5.90;99.90
30308;DHT22;17114;52.314;8.910;2023-12-20T12:53:13;6.00;99.90
30308;DHT22;17114;52.314;8.910;2023-12-20T12:55:40;6.10;99.90
30308;DHT22;17114;52.314;8.910;2023-12-20T12:58:07;6.10;99.90
30308;DHT22;17114;52.314;8.910;2023-12-20T13:00:34;6.20;99.90
30308;DHT22;17114;52.314;8.910;2023-12-20T13:03:01;6.20;99.90
30308;DHT22;17114;52.314;8.910;2023-12-20T13:05:29;6.30;99.90
30308;DHT22;17114;52.314;8.910;2023-12-20T13:07:56;6.30;99.90
30308;DHT22;17114;52.314;8.910;2023-12-20T13:10:23;6.50;99.90
30308;DHT22;17114;52.314;8.910;2023-12-20T13:12:50;6.40;99.90
30308;DHT22;17114;52.314;8.910;2023-12-20T13:15:18;6.50;99.90
30308;DHT22;17114;52.314;8.910;2023-12-20T13:17:45;6.40;99.90
30308;DHT22;17114;52.314;8.910;2023-12-20T13:20:13;6.40;99.90
30308;DHT22;17114;52.314;8.910;2023-12-20T13:22:40;6.40;99.90
30308;DHT22;17114;52.314;8.910;2023-12-20T13:25:07;6.50;99.90
30308;DHT22;17114;52.314;8.910;2023-12-20T13:27:34;6.30;99.90
30308;DHT22;17114;52.314;8.910;2023-12-20T13:30:01;6.30;99.90
30308;DHT22;17114;52.314;8.910;2023-12-20T13:32:29;6.30;99.90
30308;DHT22;17114;52.314;8.910;2023-12-20T13:34:58;6.30;99.90
30308;DHT22;17114;52.314;8.910;2023-12-20T13:37:25;6.40;99.90
30308;DHT22;17114;52.314;8.910;2023-12-20T13:39:52;6.30;99.90
30308;DHT22;17114;52.314;8.910;2023-12-20T13:42:19;6.40;99.90
30308;DHT22;17114;52.314;8.910;2023-12-20T13:44:47;6.30;99.90
30308;DHT22;17114;52.314;8.910;2023-12-20T13:47:14;6.30;99.90
30308;DHT22;17114;52.314;8.910;2023-12-20T13:49:40;6.30;99.90
30308;DHT22;17114;52.314;8.910;2023-12-20T13:52:07;6.30;99.90
30308;DHT22;17114;52.314;8.910;2023-12-20T13:54:34;6.20;99.90
30308;DHT22;17114;52.314;8.910;2023-12-20T13:57:02;6.20;99.90
30308;DHT22;17114;52.314;8.910;2023-12-20T13:59:42;6.20;99.90
30308;DHT22;17114;52.314;8.910;2023-12-20T14:02:09;6.20;99.90
30308;DHT22;17114;52.314;8.910;2023-12-20T14:04:36;6.20;99.90
30308;DHT22;17114;52.314;8.910;2023-12-20T14:07:10;6.20;99.90
30308;DHT22;17114;52.314;8.910;2023-12-20T14:09:39;6.20;99.90
30308;DHT22;17114;52.314;8.910;2023-12-20T14:12:12;6.20;99.90
30308;DHT22;17114;52.314;8.910;2023-12-20T14:14:39;6.20;99.90
30308;DHT22;17114;52.314;8.910;2023-12-20T14:17:06;6.10;99.90
30308;DHT22;17114;52.314;8.910;2023-12-20T14:19:33;6.20;99.90
30308;DHT22;17114;52.314;8.910;2023-12-20T14:22:00;6.20;99.90
30308;DHT22;17114;52.314;8.910;2023-12-20T14:24:31;6.20;99.90
30308;DHT22;17114;52.314;8.910;2023-12-20T14:26:58;6.20;99.90
30308;DHT22;17114;52.314;8.910;2023-12-20T14:29:25;6.20;99.90
30308;DHT22;17114;52.314;8.910;2023-12-20T14:31:53;6.40;99.90
30308;DHT22;17114;52.314;8.910;2023-12-20T14:34:20;6.30;99.90
30308;DHT22;17114;52.314;8.910;2023-12-20T14:36:47;6.20;99.90
30308;DHT22;17114;52.314;8.910;2023-12-20T14:39:13;6.30;99.90
30308;DHT22;17114;52.314;8.910;2023-12-20T14:41:42;6.20;99.90
30308;DHT22;17114;52.314;8.910;2023-12-20T14:44:09;6.50;99.90
30308;DHT22;17114;52.314;8.910;2023-12-20T14:46:36;6.40;99.90
30308;DHT22;17114;52.314;8.910;2023-12-20T14:49:07;6.20;99.90
30308;DHT22;17114;52.314;8.910;2023-12-20T14:51:34;6.20;99.90
30308;DHT22;17114;52.314;8.910;2023-12-20T14:54:02;6.20;99.90
30308;DHT22;17114;52.314;8.910;2023-12-20T14:56:29;6.20;99.90
30308;DHT22;17114;52.314;8.910;2023-12-20T14:58:56;6.20;99.90
30308;DHT22;17114;52.314;8.910;2023-12-20T15:01:26;6.20;99.90
30308;DHT22;17114;52.314;8.910;2023-12-20T15:03:53;6.10;99.90
30308;DHT22;17114;52.314;8.910;2023-12-20T15:06:22;6.10;99.90
30308;DHT22;17114;52.314;8.910;2023-12-20T15:08:49;6.20;99.90
30308;DHT22;17114;52.314;8.910;2023-12-20T15:11:17;6.10;99.90
30308;DHT22;17114;52.314;8.910;2023-12-20T15:13:44;6.10;99.90
30308;DHT22;17114;52.314;8.910;2023-12-20T15:16:14;6.20;99.90
30308;DHT22;17114;52.314;8.910;2023-12-20T15:18:43;6.10;99.90
30308;DHT22;17114;52.314;8.910;2023-12-20T15:21:10;6.00;99.90
30308;DHT22;17114;52.314;8.910;2023-12-20T15:23:37;6.10;99.90
30308;DHT22;17114;52.314;8.910;2023-12-20T15:26:04;6.10;99.90
30308;DHT22;17114;52.314;8.910;2023-12-20T15:28:31;6.00;99.90
30308;DHT22;17114;52.314;8.910;2023-12-20T15:30:58;6.10;99.90
30308;DHT22;17114;52.314;8.910;2023-12-20T15:33:25;6.00;99.90
30308;DHT22;17114;52.314;8.910;2023-12-20T15:35:52;5.90;99.90
30308;DHT22;17114;52.314;8.910;2023-12-20T15:38:19;5.80;99.90
30308;DHT22;17114;52.314;8.910;2023-12-20T15:40:46;5.90;99.90
30308;DHT22;17114;52.314;8.910;2023-12-20T15:43:13;5.70;99.90
30308;DHT22;17114;52.314;8.910;2023-12-20T15:45:40;6.00;99.90
30308;DHT22;17114;52.314;8.910;2023-12-20T15:48:07;5.80;99.90
30308;DHT22;17114;52.314;8.910;2023-12-20T15:50:36;5.70;99.90
30308;DHT22;17114;52.314;8.910;2023-12-20T15:53:03;5.70;99.90